sensor_id;sensor_type;location;lat;lon;timestamp;pressure;altitude;pressure_sealevel;temperature;humidity
54144;BME280;40050;47.324;18.792;2023-03-13T00:00:12;1006.20;;;7.08;51.69
54144;BME280;40050;47.324;18.792;2023-03-13T00:02:13;1006.31;;;7.09;51.49
54144;BME280;40050;47.324;18.792;2023-03-13T00:04:14;1006.27;;;7.11;51.69
54144;BME280;40050;47.324;18.792;2023-03-13T00:06:15;1006.28;;;7.12;51.93
54144;BME280;40050;47.324;18.792;2023-03-13T00:08:16;1006.22;;;7.11;51.81
54144;BME280;40050;47.324;18.792;2023-03-13T00:10:17;1006.09;;;6.96;51.92
54144;BME280;40050;47.324;18.792;2023-03-13T00:12:18;1006.22;;;7.04;52.57
54144;BME280;40050;47.324;18.792;2023-03-13T00:14:19;1006.19;;;7.03;52.90
54144;BME280;40050;47.324;18.792;2023-03-13T00:16:20;1006.21;;;7.05;52.76
54144;BME280;40050;47.324;18.792;2023-03-13T00:18:21;1006.20;;;7.04;53.42
54144;BME280;40050;47.324;18.792;2023-03-13T00:20:22;1006.20;;;7.07;54.42
54144;BME280;40050;47.324;18.792;2023-03-13T00:22:23;1006.22;;;7.06;54.82
54144;BME280;40050;47.324;18.792;2023-03-13T00:24:23;1006.21;;;7.04;54.91
54144;BME280;40050;47.324;18.792;2023-03-13T00:26:25;1006.24;;;7.04;54.81
54144;BME280;40050;47.324;18.792;2023-03-13T00:28:27;1006.08;;;7.01;54.40
54144;BME280;40050;47.324;18.792;2023-03-13T00:30:28;1006.13;;;6.94;55.21
54144;BME280;40050;47.324;18.792;2023-03-13T00:32:29;1006.09;;;6.88;55.93
54144;BME280;40050;47.324;18.792;2023-03-13T00:34:30;1006.04;;;6.84;55.74
54144;BME280;40050;47.324;18.792;2023-03-13T00:36:32;1006.01;;;6.85;55.36
54144;BME280;40050;47.324;18.792;2023-03-13T00:38:33;1006.00;;;6.92;54.89
54144;BME280;40050;47.324;18.792;2023-03-13T00:40:34;1005.95;;;6.81;55.10
54144;BME280;40050;47.324;18.792;2023-03-13T00:42:35;1005.94;;;6.85;54.82
54144;BME280;40050;47.324;18.792;2023-03-13T00:44:36;1005.87;;;6.81;54.65
54144;BME280;40050;47.324;18.792;2023-03-13T00:46:37;1005.93;;;6.86;54.41
54144;BME280;40050;47.324;18.792;2023-03-13T00:48:38;1005.83;;;6.92;54.27
54144;BME280;40050;47.324;18.792;2023-03-13T00:50:39;1005.82;;;6.92;54.33
54144;BME280;40050;47.324;18.792;2023-03-13T00:52:40;1005.82;;;6.86;54.45
54144;BME280;40050;47.324;18.792;2023-03-13T00:54:41;1005.81;;;6.95;53.88
54144;BME280;40050;47.324;18.792;2023-03-13T00:56:42;1005.71;;;6.96;53.73
54144;BME280;40050;47.324;18.792;2023-03-13T00:58:43;1005.70;;;7.03;53.60
54144;BME280;40050;47.324;18.792;2023-03-13T01:00:44;1005.67;;;6.98;54.33
54144;BME280;40050;47.324;18.792;2023-03-13T01:02:45;1005.73;;;7.03;54.09
54144;BME280;40050;47.324;18.792;2023-03-13T01:04:46;1005.74;;;6.99;54.15
54144;BME280;40050;47.324;18.792;2023-03-13T01:06:47;1005.79;;;6.99;54.18
54144;BME280;40050;47.324;18.792;2023-03-13T01:08:48;1005.39;;;6.81;54.55
54144;BME280;40050;47.324;18.792;2023-03-13T01:10:49;1005.62;;;6.97;54.71
54144;BME280;40050;47.324;18.792;2023-03-13T01:12:50;1005.61;;;7.03;54.29
54144;BME280;40050;47.324;18.792;2023-03-13T01:14:51;1005.57;;;7.02;54.76
54144;BME280;40050;47.324;18.792;2023-03-13T01:16:52;1005.49;;;7.02;54.49
54144;BME280;40050;47.324;18.792;2023-03-13T01:18:54;1005.50;;;7.06;54.42
54144;BME280;40050;47.324;18.792;2023-03-13T01:20:55;1005.43;;;7.03;54.56
54144;BME280;40050;47.324;18.792;2023-03-13T01:22:56;1005.35;;;6.97;54.86
54144;BME280;40050;47.324;18.792;2023-03-13T01:24:57;1005.53;;;7.10;54.73
54144;BME280;40050;47.324;18.792;2023-03-13T01:26:58;1005.51;;;7.12;54.56
54144;BME280;40050;47.324;18.792;2023-03-13T01:28:59;1005.47;;;7.14;54.68
54144;BME280;40050;47.324;18.792;2023-03-13T01:31:00;1005.44;;;7.17;54.55
54144;BME280;40050;47.324;18.792;2023-03-13T01:33:09;1005.36;;;7.17;54.80
54144;BME280;40050;47.324;18.792;2023-03-13T01:35:10;1005.22;;;7.11;55.18
54144;BME280;40050;47.324;18.792;2023-03-13T01:37:11;1005.40;;;7.27;55.37
54144;BME280;40050;47.324;18.792;2023-03-13T01:39:12;1005.39;;;7.28;55.21
54144;BME280;40050;47.324;18.792;2023-03-13T01:41:13;1005.46;;;7.34;55.26
54144;BME280;40050;47.324;18.792;2023-03-13T01:43:47;1005.44;;;7.38;54.92
54144;BME280;40050;47.324;18.792;2023-03-13T01:45:53;1005.39;;;7.38;54.62
54144;BME280;40050;47.324;18.792;2023-03-13T01:47:55;1005.32;;;7.35;55.08
54144;BME280;40050;47.324;18.792;2023-03-13T01:49:56;1005.31;;;7.33;55.19
54144;BME280;40050;47.324;18.792;2023-03-13T01:52:00;1005.41;;;7.38;54.79
54144;BME280;40050;47.324;18.792;2023-03-13T01:54:10;1005.38;;;7.37;54.77
54144;BME280;40050;47.324;18.792;2023-03-13T01:56:24;1005.36;;;7.41;54.97
54144;BME280;40050;47.324;18.792;2023-03-13T01:58:26;1005.30;;;7.38;54.99
54144;BME280;40050;47.324;18.792;2023-03-13T02:00:29;1005.37;;;7.39;55.14
54144;BME280;40050;47.324;18.792;2023-03-13T02:02:33;1004.91;;;7.27;55.03
54144;BME280;40050;47.324;18.792;2023-03-13T02:04:35;1005.25;;;7.41;54.58
54144;BME280;40050;47.324;18.792;2023-03-13T02:06:38;1005.26;;;7.34;54.83
54144;BME280;40050;47.324;18.792;2023-03-13T02:08:42;1005.06;;;7.20;54.71
54144;BME280;40050;47.324;18.792;2023-03-13T02:10:49;1005.22;;;7.36;54.56
54144;BME280;40050;47.324;18.792;2023-03-13T02:12:50;1005.13;;;7.33;54.63
54144;BME280;40050;47.324;18.792;2023-03-13T02:14:51;1005.18;;;7.32;54.28
54144;BME280;40050;47.324;18.792;2023-03-13T02:16:53;1005.20;;;7.29;54.29
54144;BME280;40050;47.324;18.792;2023-03-13T02:18:55;1005.23;;;7.28;54.24
54144;BME280;40050;47.324;18.792;2023-03-13T02:20:58;1005.19;;;7.21;54.28
54144;BME280;40050;47.324;18.792;2023-03-13T02:23:03;1005.14;;;7.22;54.19
54144;BME280;40050;47.324;18.792;2023-03-13T02:27:20;1005.10;;;7.17;54.20
54144;BME280;40050;47.324;18.792;2023-03-13T02:29:21;1005.08;;;6.95;54.39
54144;BME280;40050;47.324;18.792;2023-03-13T02:31:23;1005.10;;;6.99;54.46
54144;BME280;40050;47.324;18.792;2023-03-13T02:33:28;1005.08;;;6.77;54.58
54144;BME280;40050;47.324;18.792;2023-03-13T02:35:30;1004.97;;;6.82;54.56
54144;BME280;40050;47.324;18.792;2023-03-13T02:37:31;1005.12;;;6.90;54.51
54144;BME280;40050;47.324;18.792;2023-03-13T02:39:32;1005.14;;;7.02;54.33
54144;BME280;40050;47.324;18.792;2023-03-13T02:41:34;1005.14;;;7.05;54.37
54144;BME280;40050;47.324;18.792;2023-03-13T02:43:35;1005.11;;;7.03;54.41
54144;BME280;40050;47.324;18.792;2023-03-13T02:45:36;1005.15;;;7.02;54.34
54144;BME280;40050;47.324;18.792;2023-03-13T02:47:37;1005.15;;;6.89;54.52
54144;BME280;40050;47.324;18.792;2023-03-13T02:49:38;1005.20;;;6.90;54.43
54144;BME280;40050;47.324;18.792;2023-03-13T02:51:41;1005.29;;;7.00;54.24
54144;BME280;40050;47.324;18.792;2023-03-13T02:53:43;1005.31;;;6.87;54.47
54144;BME280;40050;47.324;18.792;2023-03-13T02:55:44;1005.37;;;6.91;54.67
54144;BME280;40050;47.324;18.792;2023-03-13T02:57:45;1005.35;;;6.96;54.63
54144;BME280;40050;47.324;18.792;2023-03-13T02:59:46;1005.29;;;6.96;54.64
54144;BME280;40050;47.324;18.792;2023-03-13T03:01:47;1005.25;;;7.02;54.68
54144;BME280;40050;47.324;18.792;2023-03-13T03:03:48;1005.21;;;6.93;55.03
54144;BME280;40050;47.324;18.792;2023-03-13T03:05:49;1005.16;;;6.97;55.16
54144;BME280;40050;47.324;18.792;2023-03-13T03:07:50;1005.15;;;7.02;55.18
54144;BME280;40050;47.324;18.792;2023-03-13T03:09:51;1005.18;;;6.96;55.36
54144;BME280;40050;47.324;18.792;2023-03-13T03:11:52;1005.18;;;6.90;55.62
54144;BME280;40050;47.324;18.792;2023-03-13T03:13:53;1005.18;;;6.88;55.67
54144;BME280;40050;47.324;18.792;2023-03-13T03:15:54;1005.26;;;6.96;55.51
54144;BME280;40050;47.324;18.792;2023-03-13T03:17:55;1005.28;;;6.89;55.74
54144;BME280;40050;47.324;18.792;2023-03-13T03:19:56;1005.29;;;6.91;55.68
54144;BME280;40050;47.324;18.792;2023-03-13T03:21:57;1005.34;;;6.87;55.87
54144;BME280;40050;47.324;18.792;2023-03-13T03:23:58;1005.34;;;6.87;55.90
54144;BME280;40050;47.324;18.792;2023-03-13T03:25:59;1005.31;;;6.85;56.14
54144;BME280;40050;47.324;18.792;2023-03-13T03:28:00;1005.41;;;6.92;56.26
54144;BME280;40050;47.324;18.792;2023-03-13T03:30:02;1005.37;;;6.94;56.08
54144;BME280;40050;47.324;18.792;2023-03-13T03:32:03;1005.23;;;6.90;55.99
54144;BME280;40050;47.324;18.792;2023-03-13T03:34:04;1005.36;;;6.97;55.91
54144;BME280;40050;47.324;18.792;2023-03-13T03:36:06;1005.35;;;7.00;55.83
54144;BME280;40050;47.324;18.792;2023-03-13T03:38:08;1005.32;;;7.02;55.53
54144;BME280;40050;47.324;18.792;2023-03-13T03:40:09;1005.24;;;6.99;55.56
54144;BME280;40050;47.324;18.792;2023-03-13T03:42:10;1005.26;;;6.96;55.57
54144;BME280;40050;47.324;18.792;2023-03-13T03:44:11;1005.26;;;6.71;56.10
54144;BME280;40050;47.324;18.792;2023-03-13T03:46:13;1005.29;;;6.73;56.00
54144;BME280;40050;47.324;18.792;2023-03-13T03:48:14;1004.91;;;6.44;55.97
54144;BME280;40050;47.324;18.792;2023-03-13T03:50:15;1005.38;;;6.61;56.16
54144;BME280;40050;47.324;18.792;2023-03-13T03:52:16;1005.45;;;6.66;56.02
54144;BME280;40050;47.324;18.792;2023-03-13T03:54:16;1005.16;;;6.30;56.44
54144;BME280;40050;47.324;18.792;2023-03-13T03:56:17;1005.55;;;6.53;56.21
54144;BME280;40050;47.324;18.792;2023-03-13T03:58:18;1005.57;;;6.54;56.15
54144;BME280;40050;47.324;18.792;2023-03-13T04:00:19;1005.58;;;6.47;56.31
54144;BME280;40050;47.324;18.792;2023-03-13T04:02:20;1005.60;;;6.51;56.19
54144;BME280;40050;47.324;18.792;2023-03-13T04:04:21;1005.69;;;6.54;56.02
54144;BME280;40050;47.324;18.792;2023-03-13T04:06:22;1005.71;;;6.50;55.83
54144;BME280;40050;47.324;18.792;2023-03-13T04:08:23;1005.70;;;6.59;55.65
54144;BME280;40050;47.324;18.792;2023-03-13T04:10:24;1005.68;;;6.39;55.92
54144;BME280;40050;47.324;18.792;2023-03-13T04:12:25;1005.54;;;6.37;55.70
54144;BME280;40050;47.324;18.792;2023-03-13T04:14:26;1005.62;;;6.40;55.67
54144;BME280;40050;47.324;18.792;2023-03-13T04:16:27;1005.67;;;6.44;55.70
54144;BME280;40050;47.324;18.792;2023-03-13T04:18:28;1005.66;;;6.33;55.78
54144;BME280;40050;47.324;18.792;2023-03-13T04:20:29;1005.69;;;6.30;55.77
54144;BME280;40050;47.324;18.792;2023-03-13T04:22:30;1005.75;;;6.12;55.71
54144;BME280;40050;47.324;18.792;2023-03-13T04:24:31;1005.78;;;5.93;56.43
54144;BME280;40050;47.324;18.792;2023-03-13T04:26:32;1005.76;;;6.02;56.57
54144;BME280;40050;47.324;18.792;2023-03-13T04:28:32;1005.78;;;6.13;56.16
54144;BME280;40050;47.324;18.792;2023-03-13T04:30:34;1005.78;;;5.99;56.49
54144;BME280;40050;47.324;18.792;2023-03-13T04:32:35;1005.77;;;6.08;56.33
54144;BME280;40050;47.324;18.792;2023-03-13T04:34:35;1005.74;;;6.05;56.27
54144;BME280;40050;47.324;18.792;2023-03-13T04:36:36;1005.60;;;5.98;56.55
54144;BME280;40050;47.324;18.792;2023-03-13T04:38:37;1005.71;;;6.03;56.27
54144;BME280;40050;47.324;18.792;2023-03-13T04:40:38;1005.75;;;5.94;56.48
54144;BME280;40050;47.324;18.792;2023-03-13T04:42:40;1005.75;;;6.03;56.14
54144;BME280;40050;47.324;18.792;2023-03-13T04:44:41;1005.68;;;5.85;56.44
54144;BME280;40050;47.324;18.792;2023-03-13T04:46:41;1005.71;;;6.00;56.27
54144;BME280;40050;47.324;18.792;2023-03-13T04:48:42;1005.67;;;5.77;56.80
54144;BME280;40050;47.324;18.792;2023-03-13T04:50:43;1005.65;;;5.82;56.75
54144;BME280;40050;47.324;18.792;2023-03-13T04:52:44;1005.73;;;5.95;56.41
54144;BME280;40050;47.324;18.792;2023-03-13T04:54:45;1005.73;;;5.83;56.58
54144;BME280;40050;47.324;18.792;2023-03-13T04:56:46;1005.68;;;5.63;57.15
54144;BME280;40050;47.324;18.792;2023-03-13T04:58:47;1005.75;;;5.81;56.90
54144;BME280;40050;47.324;18.792;2023-03-13T05:00:48;1005.76;;;5.86;56.78
54144;BME280;40050;47.324;18.792;2023-03-13T05:02:49;1005.78;;;5.90;56.74
54144;BME280;40050;47.324;18.792;2023-03-13T05:04:50;1005.79;;;5.93;56.56
54144;BME280;40050;47.324;18.792;2023-03-13T05:06:51;1005.78;;;5.94;56.57
54144;BME280;40050;47.324;18.792;2023-03-13T05:08:51;1005.78;;;5.85;56.75
54144;BME280;40050;47.324;18.792;2023-03-13T05:10:52;1005.73;;;5.86;56.83
54144;BME280;40050;47.324;18.792;2023-03-13T05:12:53;1005.77;;;5.96;56.68
54144;BME280;40050;47.324;18.792;2023-03-13T05:14:54;1005.86;;;5.99;56.77
54144;BME280;40050;47.324;18.792;2023-03-13T05:16:55;1005.83;;;6.03;56.54
54144;BME280;40050;47.324;18.792;2023-03-13T05:18:56;1005.82;;;6.00;56.72
54144;BME280;40050;47.324;18.792;2023-03-13T05:20:57;1005.89;;;6.06;56.66
54144;BME280;40050;47.324;18.792;2023-03-13T05:22:58;1005.91;;;6.09;56.70
54144;BME280;40050;47.324;18.792;2023-03-13T05:24:59;1005.94;;;6.15;56.54
54144;BME280;40050;47.324;18.792;2023-03-13T05:27:00;1005.97;;;6.17;56.33
54144;BME280;40050;47.324;18.792;2023-03-13T05:29:01;1006.05;;;6.19;56.24
54144;BME280;40050;47.324;18.792;2023-03-13T05:31:02;1006.07;;;6.13;56.25
54144;BME280;40050;47.324;18.792;2023-03-13T05:33:03;1006.01;;;6.07;56.21
54144;BME280;40050;47.324;18.792;2023-03-13T05:35:04;1005.95;;;5.98;56.21
54144;BME280;40050;47.324;18.792;2023-03-13T05:37:05;1005.97;;;5.90;56.21
54144;BME280;40050;47.324;18.792;2023-03-13T05:39:06;1005.91;;;5.96;56.26
54144;BME280;40050;47.324;18.792;2023-03-13T05:41:07;1005.95;;;6.06;56.03
54144;BME280;40050;47.324;18.792;2023-03-13T05:43:08;1006.03;;;6.03;56.28
54144;BME280;40050;47.324;18.792;2023-03-13T05:45:09;1006.06;;;6.10;56.11
54144;BME280;40050;47.324;18.792;2023-03-13T05:47:10;1006.02;;;6.12;56.04
54144;BME280;40050;47.324;18.792;2023-03-13T05:49:11;1005.87;;;5.87;56.30
54144;BME280;40050;47.324;18.792;2023-03-13T05:51:12;1006.06;;;6.00;56.30
54144;BME280;40050;47.324;18.792;2023-03-13T05:53:13;1006.09;;;6.05;56.05
54144;BME280;40050;47.324;18.792;2023-03-13T05:55:14;1006.11;;;6.05;56.00
54144;BME280;40050;47.324;18.792;2023-03-13T05:57:15;1006.18;;;6.08;55.97
54144;BME280;40050;47.324;18.792;2023-03-13T05:59:16;1006.14;;;6.05;55.91
54144;BME280;40050;47.324;18.792;2023-03-13T06:01:17;1006.13;;;6.04;56.06
54144;BME280;40050;47.324;18.792;2023-03-13T06:03:18;1006.19;;;6.08;56.01
54144;BME280;40050;47.324;18.792;2023-03-13T06:05:19;1006.16;;;6.03;56.20
54144;BME280;40050;47.324;18.792;2023-03-13T06:07:20;1006.12;;;6.04;56.25
54144;BME280;40050;47.324;18.792;2023-03-13T06:09:21;1006.17;;;6.12;56.04
54144;BME280;40050;47.324;18.792;2023-03-13T06:11:22;1006.16;;;6.15;56.12
54144;BME280;40050;47.324;18.792;2023-03-13T06:13:22;1006.12;;;6.04;56.17
54144;BME280;40050;47.324;18.792;2023-03-13T06:15:23;1006.12;;;6.07;56.32
54144;BME280;40050;47.324;18.792;2023-03-13T06:17:24;1006.01;;;5.89;56.29
54144;BME280;40050;47.324;18.792;2023-03-13T06:19:25;1006.12;;;6.06;55.97
54144;BME280;40050;47.324;18.792;2023-03-13T06:21:26;1006.01;;;6.08;55.78
54144;BME280;40050;47.324;18.792;2023-03-13T06:23:27;1006.03;;;5.96;56.04
54144;BME280;40050;47.324;18.792;2023-03-13T06:25:28;1005.97;;;6.04;55.92
54144;BME280;40050;47.324;18.792;2023-03-13T06:27:29;1006.01;;;6.04;55.80
54144;BME280;40050;47.324;18.792;2023-03-13T06:29:30;1005.93;;;6.12;55.95
54144;BME280;40050;47.324;18.792;2023-03-13T06:31:31;1006.05;;;6.13;55.59
54144;BME280;40050;47.324;18.792;2023-03-13T06:33:32;1006.04;;;6.38;55.40
54144;BME280;40050;47.324;18.792;2023-03-13T06:35:33;1006.08;;;6.39;55.26
54144;BME280;40050;47.324;18.792;2023-03-13T06:37:34;1006.01;;;6.50;54.73
54144;BME280;40050;47.324;18.792;2023-03-13T06:39:35;1006.01;;;6.51;54.74
54144;BME280;40050;47.324;18.792;2023-03-13T06:41:36;1006.04;;;6.56;54.76
54144;BME280;40050;47.324;18.792;2023-03-13T06:43:37;1006.04;;;6.66;54.45
54144;BME280;40050;47.324;18.792;2023-03-13T06:45:38;1006.09;;;6.79;54.56
54144;BME280;40050;47.324;18.792;2023-03-13T06:47:39;1005.90;;;6.74;54.25
54144;BME280;40050;47.324;18.792;2023-03-13T06:49:43;1006.04;;;6.60;54.24
54144;BME280;40050;47.324;18.792;2023-03-13T06:51:44;1006.06;;;6.78;53.83
54144;BME280;40050;47.324;18.792;2023-03-13T06:53:45;1006.01;;;6.63;53.83
54144;BME280;40050;47.324;18.792;2023-03-13T06:55:46;1005.98;;;6.76;54.24
54144;BME280;40050;47.324;18.792;2023-03-13T06:57:50;1005.96;;;6.75;53.61
54144;BME280;40050;47.324;18.792;2023-03-13T06:59:51;1006.04;;;6.50;53.97
54144;BME280;40050;47.324;18.792;2023-03-13T07:01:52;1006.00;;;6.58;53.97
54144;BME280;40050;47.324;18.792;2023-03-13T07:03:53;1006.04;;;6.72;53.59
54144;BME280;40050;47.324;18.792;2023-03-13T07:05:57;1006.01;;;6.91;53.72
54144;BME280;40050;47.324;18.792;2023-03-13T07:07:58;1006.02;;;6.88;52.93
54144;BME280;40050;47.324;18.792;2023-03-13T07:09:59;1006.01;;;6.91;52.80
54144;BME280;40050;47.324;18.792;2023-03-13T07:12:00;1005.99;;;7.00;52.80
54144;BME280;40050;47.324;18.792;2023-03-13T07:14:01;1005.96;;;7.09;53.02
54144;BME280;40050;47.324;18.792;2023-03-13T07:16:03;1005.87;;;7.23;52.39
54144;BME280;40050;47.324;18.792;2023-03-13T07:18:04;1005.95;;;7.44;52.52
54144;BME280;40050;47.324;18.792;2023-03-13T07:20:05;1005.88;;;7.58;52.40
54144;BME280;40050;47.324;18.792;2023-03-13T07:22:07;1005.88;;;7.77;51.78
54144;BME280;40050;47.324;18.792;2023-03-13T07:24:08;1005.77;;;7.71;51.93
54144;BME280;40050;47.324;18.792;2023-03-13T07:26:10;1005.74;;;7.64;51.81
54144;BME280;40050;47.324;18.792;2023-03-13T07:28:11;1005.80;;;7.92;51.54
54144;BME280;40050;47.324;18.792;2023-03-13T07:30:12;1005.82;;;8.11;51.03
54144;BME280;40050;47.324;18.792;2023-03-13T07:32:14;1005.80;;;8.06;50.42
54144;BME280;40050;47.324;18.792;2023-03-13T07:34:15;1005.84;;;8.23;49.90
54144;BME280;40050;47.324;18.792;2023-03-13T07:36:16;1005.83;;;8.31;49.68
54144;BME280;40050;47.324;18.792;2023-03-13T07:38:17;1005.80;;;8.60;49.53
54144;BME280;40050;47.324;18.792;2023-03-13T07:40:18;1005.79;;;8.79;48.81
54144;BME280;40050;47.324;18.792;2023-03-13T07:42:19;1005.82;;;8.88;49.19
54144;BME280;40050;47.324;18.792;2023-03-13T07:44:20;1005.72;;;9.08;48.77
54144;BME280;40050;47.324;18.792;2023-03-13T07:46:21;1005.73;;;9.00;47.72
54144;BME280;40050;47.324;18.792;2023-03-13T07:48:23;1005.77;;;9.08;47.00
54144;BME280;40050;47.324;18.792;2023-03-13T07:50:24;1005.75;;;9.22;47.42
54144;BME280;40050;47.324;18.792;2023-03-13T07:52:25;1005.64;;;9.26;47.16
54144;BME280;40050;47.324;18.792;2023-03-13T07:54:26;1005.46;;;9.17;46.17
54144;BME280;40050;47.324;18.792;2023-03-13T07:56:27;1005.70;;;9.36;45.69
54144;BME280;40050;47.324;18.792;2023-03-13T07:58:32;1005.63;;;9.31;46.56
54144;BME280;40050;47.324;18.792;2023-03-13T08:00:33;1005.55;;;9.62;46.13
54144;BME280;40050;47.324;18.792;2023-03-13T08:02:34;1005.54;;;9.63;46.24
54144;BME280;40050;47.324;18.792;2023-03-13T08:04:35;1005.56;;;9.92;46.33
54144;BME280;40050;47.324;18.792;2023-03-13T08:06:36;1005.57;;;10.03;45.01
54144;BME280;40050;47.324;18.792;2023-03-13T08:08:37;1005.60;;;10.03;44.42
54144;BME280;40050;47.324;18.792;2023-03-13T08:10:39;1005.47;;;9.98;44.64
54144;BME280;40050;47.324;18.792;2023-03-13T08:12:40;1005.43;;;10.10;44.53
54144;BME280;40050;47.324;18.792;2023-03-13T08:14:40;1005.41;;;10.25;43.49
54144;BME280;40050;47.324;18.792;2023-03-13T08:16:41;1005.36;;;10.32;44.51
54144;BME280;40050;47.324;18.792;2023-03-13T08:18:46;1005.36;;;10.55;44.88
54144;BME280;40050;47.324;18.792;2023-03-13T08:20:47;1005.29;;;10.70;43.51
54144;BME280;40050;47.324;18.792;2023-03-13T08:22:48;1005.22;;;10.71;43.65
54144;BME280;40050;47.324;18.792;2023-03-13T08:24:49;1005.19;;;10.74;43.27
54144;BME280;40050;47.324;18.792;2023-03-13T08:26:50;1005.21;;;10.65;42.50
54144;BME280;40050;47.324;18.792;2023-03-13T08:28:52;1005.11;;;10.74;43.04
54144;BME280;40050;47.324;18.792;2023-03-13T08:30:53;1005.10;;;10.93;43.25
54144;BME280;40050;47.324;18.792;2023-03-13T08:32:54;1005.03;;;11.14;42.74
54144;BME280;40050;47.324;18.792;2023-03-13T08:34:55;1005.01;;;11.44;42.33
54144;BME280;40050;47.324;18.792;2023-03-13T08:36:56;1005.03;;;11.59;42.40
54144;BME280;40050;47.324;18.792;2023-03-13T08:38:58;1004.96;;;11.84;42.12
54144;BME280;40050;47.324;18.792;2023-03-13T08:40:59;1005.04;;;11.86;40.45
54144;BME280;40050;47.324;18.792;2023-03-13T08:43:00;1005.05;;;11.81;39.97
54144;BME280;40050;47.324;18.792;2023-03-13T08:45:01;1004.96;;;11.72;40.13
54144;BME280;40050;47.324;18.792;2023-03-13T08:47:04;1004.94;;;11.77;40.01
54144;BME280;40050;47.324;18.792;2023-03-13T08:49:06;1004.92;;;12.01;40.49
54144;BME280;40050;47.324;18.792;2023-03-13T08:51:11;1004.94;;;12.39;39.93
54144;BME280;40050;47.324;18.792;2023-03-13T08:53:12;1004.90;;;12.55;40.02
54144;BME280;40050;47.324;18.792;2023-03-13T08:55:13;1004.86;;;12.78;38.57
54144;BME280;40050;47.324;18.792;2023-03-13T08:57:14;1004.80;;;12.94;39.12
54144;BME280;40050;47.324;18.792;2023-03-13T08:59:15;1004.70;;;12.72;37.74
54144;BME280;40050;47.324;18.792;2023-03-13T09:01:16;1004.78;;;12.59;37.87
54144;BME280;40050;47.324;18.792;2023-03-13T09:03:17;1004.83;;;12.63;37.77
54144;BME280;40050;47.324;18.792;2023-03-13T09:05:18;1004.77;;;12.63;37.27
54144;BME280;40050;47.324;18.792;2023-03-13T09:07:19;1004.73;;;12.33;37.65
54144;BME280;40050;47.324;18.792;2023-03-13T09:09:19;1004.66;;;12.56;37.60
54144;BME280;40050;47.324;18.792;2023-03-13T09:11:20;1004.73;;;12.74;38.10
54144;BME280;40050;47.324;18.792;2023-03-13T09:13:22;1004.77;;;13.13;37.68
54144;BME280;40050;47.324;18.792;2023-03-13T09:15:23;1004.76;;;13.16;37.19
54144;BME280;40050;47.324;18.792;2023-03-13T09:17:24;1004.68;;;13.08;36.84
54144;BME280;40050;47.324;18.792;2023-03-13T09:19:25;1004.69;;;13.14;36.89
54144;BME280;40050;47.324;18.792;2023-03-13T09:21:29;1004.53;;;13.34;36.68
54144;BME280;40050;47.324;18.792;2023-03-13T09:23:31;1004.50;;;13.37;36.39
54144;BME280;40050;47.324;18.792;2023-03-13T09:25:31;1004.52;;;13.41;36.81
54144;BME280;40050;47.324;18.792;2023-03-13T09:27:32;1004.52;;;13.50;36.39
54144;BME280;40050;47.324;18.792;2023-03-13T09:29:33;1004.42;;;13.51;36.62
54144;BME280;40050;47.324;18.792;2023-03-13T09:31:34;1004.38;;;13.86;36.87
54144;BME280;40050;47.324;18.792;2023-03-13T09:33:35;1004.41;;;14.06;35.09
54144;BME280;40050;47.324;18.792;2023-03-13T09:35:37;1004.43;;;14.10;35.18
54144;BME280;40050;47.324;18.792;2023-03-13T09:37:38;1004.39;;;14.11;35.21
54144;BME280;40050;47.324;18.792;2023-03-13T09:39:39;1004.42;;;14.37;35.55
54144;BME280;40050;47.324;18.792;2023-03-13T09:44:18;1004.29;;;14.87;33.86
54144;BME280;40050;47.324;18.792;2023-03-13T09:48:43;1004.37;;;15.06;33.05
54144;BME280;40050;47.324;18.792;2023-03-13T09:50:46;1004.33;;;15.22;33.76
54144;BME280;40050;47.324;18.792;2023-03-13T09:52:54;1004.36;;;15.11;31.97
54144;BME280;40050;47.324;18.792;2023-03-13T09:55:20;1004.23;;;15.38;32.93
54144;BME280;40050;47.324;18.792;2023-03-13T09:59:44;1004.29;;;15.71;32.57
54144;BME280;40050;47.324;18.792;2023-03-13T10:01:47;1004.15;;;15.47;32.05
54144;BME280;40050;47.324;18.792;2023-03-13T10:04:00;1004.09;;;15.32;32.89
54144;BME280;40050;47.324;18.792;2023-03-13T10:06:05;1004.08;;;15.40;32.42
54144;BME280;40050;47.324;18.792;2023-03-13T10:08:24;1004.08;;;15.60;32.10
54144;BME280;40050;47.324;18.792;2023-03-13T10:11:15;1004.07;;;15.61;32.03
54144;BME280;40050;47.324;18.792;2023-03-13T10:12:40;1004.07;;;15.90;31.64
54144;BME280;40050;47.324;18.792;2023-03-13T10:17:18;1003.96;;;16.18;32.18
54144;BME280;40050;47.324;18.792;2023-03-13T10:19:26;1004.02;;;16.27;32.11
54144;BME280;40050;47.324;18.792;2023-03-13T10:21:31;1003.96;;;16.22;32.18
54144;BME280;40050;47.324;18.792;2023-03-13T10:25:46;1003.97;;;16.07;32.64
54144;BME280;40050;47.324;18.792;2023-03-13T10:27:48;1003.98;;;15.81;32.55
54144;BME280;40050;47.324;18.792;2023-03-13T10:29:49;1003.99;;;16.04;32.60
54144;BME280;40050;47.324;18.792;2023-03-13T10:32:00;1003.97;;;16.11;31.87
54144;BME280;40050;47.324;18.792;2023-03-13T10:34:11;1004.06;;;15.99;31.51
54144;BME280;40050;47.324;18.792;2023-03-13T10:36:13;1003.95;;;16.23;31.65
54144;BME280;40050;47.324;18.792;2023-03-13T10:38:16;1003.87;;;16.06;32.24
54144;BME280;40050;47.324;18.792;2023-03-13T10:40:22;1003.94;;;16.10;32.33
54144;BME280;40050;47.324;18.792;2023-03-13T10:42:26;1003.86;;;15.78;32.26
54144;BME280;40050;47.324;18.792;2023-03-13T10:44:29;1003.55;;;15.62;32.45
54144;BME280;40050;47.324;18.792;2023-03-13T10:46:31;1003.75;;;16.17;32.58
54144;BME280;40050;47.324;18.792;2023-03-13T10:48:35;1003.58;;;16.12;32.70
54144;BME280;40050;47.324;18.792;2023-03-13T10:50:36;1003.73;;;16.45;32.25
54144;BME280;40050;47.324;18.792;2023-03-13T10:52:44;1003.66;;;16.21;31.98
54144;BME280;40050;47.324;18.792;2023-03-13T10:54:45;1003.72;;;16.01;32.26
54144;BME280;40050;47.324;18.792;2023-03-13T10:56:46;1003.64;;;15.75;32.75
54144;BME280;40050;47.324;18.792;2023-03-13T10:58:48;1003.59;;;15.78;33.08
54144;BME280;40050;47.324;18.792;2023-03-13T11:00:49;1003.47;;;16.02;32.96
54144;BME280;40050;47.324;18.792;2023-03-13T11:02:50;1003.45;;;16.02;32.97
54144;BME280;40050;47.324;18.792;2023-03-13T11:04:53;1003.31;;;16.00;33.41